Decoded Metar for KPBF (PINE BLUFF in AR, USA) (IATA:PBF) | Meteo·Mobile Aviation Weather
aviador You're here:

KPBF Decoded Metar

PINE BLUFF in AR, USA
Report Time2019-10-21 06:53:00
UTC Time2019-10-21 07:11:24
Flight Rules mvfr MVFR
Wind180° at 15 kt
W.Decomp.*RWY 18: 15.0 kt HW 0.5 kt LCW
Visibility9999 m
Phenomena:N/A
Clouds:Overcast 017 Hf
Expected CloudBase > 1,200 ft AGL from Temp-Dew spread
Ceiling1,700 ft
Temp24°C (ISA +9)
Dew Point21°C (83% RH)
AAT22.7°C
QNH1004 hPa
Density Alt1,926 ft
Elevation203 ft
Report Wrong Elevation
Raw Report
KPBF 210653Z AUTO 18015KT 10SM OVC017 24/21 A2965 RMK AO2 SLP038
T02390206=

Extra information for KPBF:More info

Metar Taf Metar & Taf Last 4 Metars F.Rules Stats Wind Profile Meteogram Temp Stats Airport Information Weather charts Add Link Nearby VenuesMetar ALERT Operation Metar Decoded Social comments

AIRNAV info for KPBF